Flight Track Log - Related Links

Times and Time Zones

All times are in EDT time to prevent confusion due to time zone crossing. See the UPS110 flight status page for this flight to view local times or setup timezone preferences in your user account.

Time Position Orientation Groundspeed Altitude Reporting Facility
EDT Latitude Longitude Course Direction KTS MPH feet Rate Location/Type
Sat 04:47:22 AM 38.1490 -85.7380 165° South 163 188 2,000  Level FlightAware ADS-B
Sat 04:47:52 AM 38.1250 -85.7440 191° South 197 227 2,900 1,964 Climbing FlightAware ADS-B
Sat 04:48:17 AM 38.1010 -85.7500 191° South 213 245 3,800 1,920 Climbing FlightAware ADS-B
Sat 04:48:42 AM 38.0750 -85.7560 190° South 237 273 4,500 1,886 Climbing FlightAware ADS-B
Sat 04:48:52 AM 38.0650 -85.7620 205° Southwest 246 283 4,900 2,160 Climbing FlightAware ADS-B
Sat 04:49:07 AM 38.0540 -85.7770 227° Southwest 260 299 5,400 2,400 Climbing FlightAware ADS-B
Sat 04:49:22 AM 38.0480 -85.8010 252° West 275 316 6,100 2,550 Climbing FlightAware ADS-B
Sat 04:49:47 AM 38.0560 -85.8400 285° West 297 342 7,100 2,727 Climbing FlightAware ADS-B
Sat 04:50:17 AM 38.0810 -85.8810 308° West 293 337 8,600 2,500 Climbing FlightAware ADS-B
Sat 04:50:47 AM 38.1110 -85.9190 315° West 309 356 9,600 1,800 Climbing FlightAware ADS-B
Sat 04:51:27 AM 38.1530 -85.9700 316° Northwest 328 377 10,700 1,477 Climbing FlightAware ADS-B
Sat 04:52:57 AM 38.2690 -86.1080 317° Northwest 423 487 12,800 1,750 Climbing FlightAware ADS-B
Sat 04:53:27 AM 38.3100 -86.1560 317° Northwest 431 496 14,200 3,046 Climbing FlightAware ADS-B
Sat 04:54:02 AM 38.3640 -86.2220 316° Northwest 437 503 16,100 3,138 Climbing FlightAware ADS-B
Sat 04:54:32 AM 38.4100 -86.2760 317° Northwest 443 510 17,600 2,480 Climbing FlightAware ADS-B
Sat 04:55:17 AM 38.4770 -86.3560 317° Northwest 458 527 19,200 2,188 Climbing FlightAware ADS-B
Sat 04:55:57 AM 38.5380 -86.4290 317° Northwest 468 539 20,700 2,320 Climbing FlightAware ADS-B
Sat 04:56:32 AM 38.5970 -86.4990 317° Northwest 474 545 22,100 2,100 Climbing FlightAware ADS-B
Sat 04:57:17 AM 38.6680 -86.5840 317° Northwest 486 559 23,500 1,840 Climbing FlightAware ADS-B
Sat 04:57:47 AM 38.7170 -86.6430 317° Northwest 494 568 24,400 1,800 Climbing FlightAware ADS-B
Sat 04:58:27 AM 38.7850 -86.7250 317° Northwest 505 581 25,600 1,725 Climbing FlightAware ADS-B
Sat 04:59:07 AM 38.8540 -86.8080 317° Northwest 514 592 26,700 2,133 Climbing FlightAware ADS-B
Sat 04:59:57 AM 38.9370 -86.9090 317° Northwest 505 581 28,800 2,400 Climbing FlightAware ADS-B
Sat 05:00:42 AM 39.0150 -87.0030 317° Northwest 497 572 30,500 2,080 Climbing FlightAware ADS-B
Sat 05:01:12 AM 39.0610 -87.0590 317° Northwest 495 570 31,400 1,680 Climbing FlightAware ADS-B
Sat 05:01:57 AM 39.1380 -87.1540 316° Northwest 495 570 32,600 1,360 Climbing FlightAware ADS-B
Sat 05:02:27 AM 39.1850 -87.2110 317° Northwest 498 573 33,100 1,114 Climbing FlightAware ADS-B
Sat 05:03:07 AM 39.2530 -87.2940 317° Northwest 499 574 33,900 720 Climbing FlightAware ADS-B
Sat 05:03:42 AM 39.3140 -87.3700 316° Northwest 499 574 34,000 80 Climbing FlightAware ADS-B
Sat 05:04:22 AM 39.3840 -87.4550 317° Northwest 496 571 34,000  Level FlightAware ADS-B
Sat 05:05:02 AM 39.4500 -87.5370 316° Northwest 496 571 34,000  Level FlightAware ADS-B
Sat 05:05:37 AM 39.5060 -87.6070 316° Northwest 499 574 34,000  Level FlightAware ADS-B
Sat 05:06:27 AM 39.5900 -87.7110 316° Northwest 500 575 34,000  Level FlightAware ADS-B
Sat 05:07:22 AM 39.6840 -87.8290 316° Northwest 501 577 34,000  Level FlightAware ADS-B
Sat 05:08:02 AM 39.7500 -87.9110 316° Northwest 501 577 34,000  Level FlightAware ADS-B
Sat 05:08:37 AM 39.8060 -87.9820 316° Northwest 502 578 34,000  Level FlightAware ADS-B
Sat 05:09:17 AM 39.8740 -88.0680 316° Northwest 503 579 34,000  Level FlightAware ADS-B
Sat 05:10:02 AM 39.9500 -88.1640 316° Northwest 504 580 34,000  Level FlightAware ADS-B
Sat 05:10:42 AM 40.0170 -88.2490 316° Northwest 505 581 34,000  Level FlightAware ADS-B
Sat 05:11:22 AM 40.0840 -88.3340 316° Northwest 505 581 34,000  Level FlightAware ADS-B
Sat 05:11:52 AM 40.1320 -88.3950 316° Northwest 505 581 34,000  Level FlightAware ADS-B
Sat 05:12:32 AM 40.1990 -88.4810 316° Northwest 504 580 34,000  Level FlightAware ADS-B
Sat 05:13:17 AM 40.2720 -88.5740 316° Northwest 504 580 34,000  Level FlightAware ADS-B
Sat 05:13:57 AM 40.3410 -88.6630 316° Northwest 502 578 34,000  Level FlightAware ADS-B
Sat 05:14:32 AM 40.3980 -88.7370 315° West 502 578 34,000  Level FlightAware ADS-B
Sat 05:15:17 AM 40.4710 -88.8310 316° Northwest 500 575 34,000  Level FlightAware ADS-B
Sat 05:15:57 AM 40.5390 -88.9190 315° West 499 574 34,000  Level FlightAware ADS-B
Sat 05:16:37 AM 40.6040 -89.0030 316° Northwest 499 574 34,000  Level FlightAware ADS-B
Sat 05:17:22 AM 40.6790 -89.1010 315° West 498 573 34,000  Level FlightAware ADS-B
Sat 05:18:02 AM 40.7450 -89.1870 315° West 497 572 34,000  Level FlightAware ADS-B
Sat 05:18:47 AM 40.8150 -89.2790 315° West 497 572 34,000  Level FlightAware ADS-B
Sat 05:19:27 AM 40.8810 -89.3670 315° West 495 570 34,000  Level FlightAware ADS-B
Sat 05:20:12 AM 40.9540 -89.4630 315° West 494 568 34,000  Level FlightAware ADS-B
Sat 05:20:52 AM 41.0190 -89.5490 315° West 494 568 34,000  Level FlightAware ADS-B
Sat 05:21:32 AM 41.0850 -89.6370 315° West 494 568 34,000  Level FlightAware ADS-B
Sat 05:22:17 AM 41.1560 -89.7310 315° West 494 568 34,000  Level FlightAware ADS-B
Sat 05:22:57 AM 41.2200 -89.8170 315° West 494 568 34,000  Level FlightAware ADS-B
Sat 05:23:42 AM 41.2930 -89.9150 315° West 494 568 34,000  Level FlightAware ADS-B
Sat 05:24:22 AM 41.3580 -90.0020 315° West 496 571 34,000  Level FlightAware ADS-B
Sat 05:25:02 AM 41.4230 -90.0910 314° West 497 572 34,000  Level FlightAware ADS-B
Sat 05:25:47 AM 41.4940 -90.1860 315° West 499 574 34,000  Level FlightAware ADS-B
Sat 05:26:27 AM 41.5580 -90.2740 314° West 499 574 34,000  Level FlightAware ADS-B
Sat 05:27:07 AM 41.6230 -90.3620 315° West 499 574 34,000  Level FlightAware ADS-B
Sat 05:27:52 AM 41.6980 -90.4640 315° West 499 574 34,000  Level FlightAware ADS-B
Sat 05:28:32 AM 41.7610 -90.5510 314° West 498 573 34,000  Level FlightAware ADS-B
Sat 05:29:12 AM 41.8250 -90.6390 314° West 497 572 34,000  Level FlightAware ADS-B
Sat 05:29:57 AM 41.8950 -90.7360 314° West 496 571 34,000  Level FlightAware ADS-B
Sat 05:30:37 AM 41.9590 -90.8240 314° West 495 570 34,000  Level FlightAware ADS-B
Sat 05:31:22 AM 42.0330 -90.9270 314° West 494 568 34,000  Level FlightAware ADS-B
Sat 05:32:02 AM 42.0960 -91.0150 314° West 493 567 34,000  Level FlightAware ADS-B
Sat 05:32:42 AM 42.1580 -91.1010 314° West 492 566 34,000  Level FlightAware ADS-B
Sat 05:33:32 AM 42.2370 -91.2120 314° West 492 566 34,000  Level FlightAware ADS-B
Sat 05:34:12 AM 42.3010 -91.3030 314° West 492 566 34,000  Level FlightAware ADS-B
Sat 05:34:52 AM 42.3640 -91.3920 314° West 491 565 34,000  Level FlightAware ADS-B
Sat 05:35:37 AM 42.4340 -91.4900 314° West 493 567 34,000  Level FlightAware ADS-B
Sat 05:36:17 AM 42.4940 -91.5770 313° West 495 570 34,000  Level FlightAware ADS-B
Sat 05:36:57 AM 42.5600 -91.6710 314° West 495 570 34,000  Level FlightAware ADS-B
Sat 05:37:42 AM 42.6290 -91.7690 314° West 496 571 34,000  Level FlightAware ADS-B
Sat 05:38:12 AM 42.6750 -91.8340 314° West 497 572 34,000  Level FlightAware ADS-B
Sat 05:38:52 AM 42.7350 -91.9220 313° West 498 573 34,000  Level FlightAware ADS-B
Sat 05:39:32 AM 42.8010 -92.0160 314° West 498 573 34,000  Level FlightAware ADS-B
Sat 05:40:17 AM 42.8710 -92.1180 313° West 497 572 34,000  Level FlightAware ADS-B
Sat 05:40:57 AM 42.9370 -92.2150 313° West 498 573 34,000  Level FlightAware ADS-B
Sat 05:41:37 AM 43.0000 -92.3060 313° West 496 571 34,000  Level FlightAware ADS-B
Sat 05:42:22 AM 43.0670 -92.4040 313° West 495 570 34,000  Level FlightAware ADS-B
Sat 05:43:02 AM 43.1300 -92.4970 313° West 494 568 34,000  Level FlightAware ADS-B
Sat 05:43:47 AM 43.2020 -92.6020 313° West 493 567 34,000  Level FlightAware ADS-B
Sat 05:44:27 AM 43.2640 -92.6950 312° West 491 565 34,000  Level FlightAware ADS-B
Sat 05:45:12 AM 43.3320 -92.7950 313° West 490 564 34,000  Level FlightAware ADS-B
Sat 05:45:52 AM 43.3930 -92.8860 313° West 489 563 34,000  Level FlightAware ADS-B
Sat 05:46:32 AM 43.4540 -92.9770 313° West 489 563 34,000  Level FlightAware ADS-B
Sat 05:47:17 AM 43.5240 -93.0840 312° West 489 563 34,000  Level FlightAware ADS-B
Sat 05:47:57 AM 43.5820 -93.1700 313° West 489 563 34,000  Level FlightAware ADS-B
Sat 05:48:42 AM 43.6530 -93.2760 313° West 489 563 34,000  Level FlightAware ADS-B
Sat 05:49:22 AM 43.7150 -93.3690 313° West 489 563 34,000  Level FlightAware ADS-B
Sat 05:50:07 AM 43.7810 -93.4700 312° West 489 563 34,000  Level FlightAware ADS-B
Sat 05:50:47 AM 43.8440 -93.5670 312° West 489 563 34,000  Level FlightAware ADS-B
Sat 05:51:27 AM 43.9050 -93.6590 313° West 487 560 34,000  Level FlightAware ADS-B
Sat 05:52:12 AM 43.9740 -93.7660 312° West 485 558 34,000  Level FlightAware ADS-B
Sat 05:52:52 AM 44.0350 -93.8600 312° West 485 558 34,000  Level FlightAware ADS-B
Sat 05:53:37 AM 44.1010 -93.9610 312° West 484 557 34,000  Level FlightAware ADS-B
Sat 05:54:17 AM 44.1600 -94.0530 312° West 484 557 34,000  Level FlightAware ADS-B
Sat 05:54:57 AM 44.2200 -94.1460 312° West 483 556 34,000  Level FlightAware ADS-B
Sat 05:55:42 AM 44.2870 -94.2510 312° West 483 556 34,000  Level FlightAware ADS-B
Sat 05:56:22 AM 44.3480 -94.3460 312° West 483 556 34,000  Level FlightAware ADS-B
Sat 05:57:07 AM 44.4130 -94.4490 311° West 483 556 34,000  Level FlightAware ADS-B
Sat 05:57:47 AM 44.4720 -94.5420 312° West 484 557 34,000  Level FlightAware ADS-B
Sat 05:58:27 AM 44.5310 -94.6360 311° West 485 558 34,000  Level FlightAware ADS-B
Sat 05:59:12 AM 44.5990 -94.7430 312° West 486 559 34,000  Level FlightAware ADS-B
Sat 05:59:52 AM 44.6590 -94.8390 311° West 486 559 34,000  Level FlightAware ADS-B
Sat 06:00:37 AM 44.7260 -94.9460 311° West 486 559 34,000  Level FlightAware ADS-B
Sat 06:01:17 AM 44.7850 -95.0400 312° West 487 560 34,000  Level FlightAware ADS-B
Sat 06:01:57 AM 44.8440 -95.1370 311° West 488 562 34,000  Level FlightAware ADS-B
Sat 06:02:42 AM 44.9090 -95.2410 311° West 488 562 34,000  Level FlightAware ADS-B
Sat 06:03:22 AM 44.9680 -95.3370 311° West 489 563 34,000  Level FlightAware ADS-B
Sat 06:04:07 AM 45.0370 -95.4490 311° West 488 562 34,000  Level FlightAware ADS-B
Sat 06:04:47 AM 45.0950 -95.5450 311° West 488 562 34,000  Level FlightAware ADS-B
Sat 06:05:27 AM 45.1540 -95.6410 311° West 487 560 34,000  Level FlightAware ADS-B
Sat 06:06:12 AM 45.2190 -95.7490 311° West 487 560 34,000  Level FlightAware ADS-B
Sat 06:06:52 AM 45.2790 -95.8470 311° West 486 559 34,000  Level FlightAware ADS-B
Sat 06:07:37 AM 45.3430 -95.9530 311° West 485 558 34,000  Level FlightAware ADS-B
Sat 06:08:17 AM 45.3960 -96.0420 310° West 484 557 34,000  Level FlightAware ADS-B
Sat 06:08:57 AM 45.4590 -96.1470 311° West 483 556 34,000  Level FlightAware ADS-B
Sat 06:09:42 AM 45.5250 -96.2570 311° West 481 554 34,000  Level FlightAware ADS-B
Sat 06:10:22 AM 45.5830 -96.3560 310° West 481 554 34,000  Level FlightAware ADS-B
Sat 06:11:07 AM 45.6460 -96.4630 310° West 481 554 34,000  Level FlightAware ADS-B
Sat 06:11:47 AM 45.7030 -96.5590 310° West 480 552 34,000  Level FlightAware ADS-B
Sat 06:12:27 AM 45.7600 -96.6550 310° West 479 551 34,000  Level FlightAware ADS-B
Sat 06:13:12 AM 45.8250 -96.7660 310° West 479 551 34,000  Level FlightAware ADS-B
Sat 06:13:52 AM 45.8820 -96.8650 310° West 479 551 34,000  Level FlightAware ADS-B
Sat 06:14:37 AM 45.9450 -96.9740 310° West 478 550 34,000  Level FlightAware ADS-B
Sat 06:15:17 AM 46.0010 -97.0700 310° West 477 549 34,000  Level FlightAware ADS-B
Sat 06:15:57 AM 46.0570 -97.1670 310° West 477 549 34,000  Level FlightAware ADS-B
Sat 06:16:42 AM 46.1130 -97.2660 309° West 477 549 34,000  Level FlightAware ADS-B
Sat 06:17:22 AM 46.1790 -97.3790 310° West 478 550 34,000  Level FlightAware ADS-B
Sat 06:18:07 AM 46.2410 -97.4870 310° West 478 550 34,000  Level FlightAware ADS-B
Sat 06:18:42 AM 46.2860 -97.5680 309° West 479 551 34,000  Level FlightAware ADS-B
Sat 06:19:27 AM 46.3530 -97.6850 310° West 477 549 34,000  Level FlightAware ADS-B
Sat 06:20:12 AM 46.4140 -97.7940 309° West 477 549 34,000  Level FlightAware ADS-B
Sat 06:20:52 AM 46.4700 -97.8940 309° West 477 549 34,000  Level FlightAware ADS-B
Sat 06:21:32 AM 46.5220 -97.9860 309° West 477 549 34,000  Level FlightAware ADS-B
Sat 06:22:12 AM 46.5690 -98.0710 309° West 477 549 34,000  Level FlightAware ADS-B
Sat 06:22:57 AM 46.6450 -98.2060 309° West 475 547 34,000  Level FlightAware ADS-B
Sat 06:23:42 AM 46.7030 -98.3120 309° West 475 547 34,000  Level FlightAware ADS-B
Sat 06:24:32 AM 46.7700 -98.4350 309° West 474 545 34,000  Level FlightAware ADS-B
Sat 06:25:12 AM 46.8160 -98.5200 308° West 474 545 34,000  Level FlightAware ADS-B
Sat 06:26:02 AM 46.8730 -98.6280 308° West 474 545 34,000  Level FlightAware ADS-B
Sat 06:26:42 AM 46.9190 -98.7140 308° West 474 545 34,000  Level FlightAware ADS-B
Sat 06:27:22 AM 46.9650 -98.8000 308° West 474 545 34,000  Level FlightAware ADS-B
Sat 06:28:02 AM 47.0110 -98.8860 308° West 474 545 34,000  Level FlightAware ADS-B
Sat 06:28:42 AM 47.0570 -98.9720 308° West 474 545 34,000  Level FlightAware ADS-B
Sat 06:29:32 AM 47.1140 -99.0800 308° West 474 545 34,000  Level FlightAware ADS-B
Sat 06:30:12 AM 47.1600 -99.1660 308° West 474 545 34,000  Level FlightAware ADS-B
Sat 06:30:52 AM 47.2060 -99.2530 308° West 474 545 34,000  Level FlightAware ADS-B
Sat 06:31:32 AM 47.2520 -99.3390 308° West 474 545 34,000  Level FlightAware ADS-B
Sat 06:32:12 AM 47.2970 -99.4260 307° West 474 545 34,000  Level FlightAware ADS-B
Sat 06:32:52 AM 47.3430 -99.5130 308° West 474 545 34,000  Level FlightAware ADS-B
Sat 06:33:42 AM 47.4010 -99.6210 308° West 474 545 34,000  Level FlightAware ADS-B
Sat 06:38:22 AM 47.8670 -100.5050 308° West 454 522 34,000  Level FlightAware ADS-B
Sat 06:38:57 AM 47.9110 -100.5910 307° West 454 522 34,000  Level FlightAware ADS-B
Sat 06:40:02 AM 47.9920 -100.7500 307° West 454 522 34,000  Level FlightAware ADS-B
Sat 06:40:57 AM 48.0570 -100.8820 306° West 454 522 34,000  Level FlightAware ADS-B
Sat 06:41:37 AM 48.0990 -100.9680 306° West 454 522 34,000  Level FlightAware ADS-B
Sat 06:42:17 AM 48.1410 -101.0550 306° West 454 522 34,000  Level FlightAware ADS-B
Sat 06:42:57 AM 48.1830 -101.1420 306° West 454 522 34,000  Level FlightAware ADS-B
Sat 06:43:47 AM 48.2350 -101.2500 306° West 454 522 34,000  Level FlightAware ADS-B
Sat 06:44:27 AM 48.2770 -101.3370 306° West 454 522 34,000  Level FlightAware ADS-B
Sat 06:45:07 AM 48.3190 -101.4240 306° West 454 522 34,000  Level FlightAware ADS-B
Sat 06:45:47 AM 48.3610 -101.5110 306° West 454 522 34,000  Level FlightAware ADS-B
Sat 06:46:27 AM 48.4030 -101.5980 306° West 454 522 34,000  Level FlightAware ADS-B
Sat 06:47:17 AM 48.4550 -101.7060 306° West 454 522 34,000  Level FlightAware ADS-B
Sat 06:47:57 AM 48.4970 -101.7940 306° West 454 522 34,000  Level FlightAware ADS-B
Sat 06:48:37 AM 48.5390 -101.8810 306° West 454 522 34,000  Level FlightAware ADS-B
Sat 06:49:17 AM 48.5810 -101.9680 306° West 454 522 34,000  Level FlightAware ADS-B
Sat 06:49:57 AM 48.6230 -102.0560 306° West 454 522 34,000  Level FlightAware ADS-B
Sat 06:51:57 AM 49.0310 -102.3850 332° Northwest 463 533 34,000  Level FlightAware ADS-B
Sat 06:52:27 AM 49.0820 -102.4590 316° Northwest 462 532 34,000  Level FlightAware ADS-B
Sat 06:53:12 AM 49.1420 -102.5470 316° Northwest 461 531 34,000  Level FlightAware ADS-B
Sat 06:54:02 AM 49.2290 -102.6750 316° Northwest 457 526 34,000  Level FlightAware ADS-B
Sat 06:54:42 AM 49.2860 -102.7580 316° Northwest 455 524 34,000  Level FlightAware ADS-B
Sat 06:55:27 AM 49.3540 -102.8590 316° Northwest 453 521 34,000  Level FlightAware ADS-B
Sat 06:55:57 AM 49.4010 -102.9290 316° Northwest 451 519 34,000  Level FlightAware ADS-B
Sat 06:56:42 AM 49.4600 -103.0200 315° West 451 519 34,000  Level FlightAware ADS-B
Sat 06:57:27 AM 49.5350 -103.1300 316° Northwest 451 519 34,000  Level FlightAware ADS-B
Sat 06:58:27 AM 49.6170 -103.2550 315° West 451 519 34,000  Level FlightAware ADS-B
Sat 06:59:07 AM 49.6670 -103.3320 315° West 451 519 34,000  Level FlightAware ADS-B
Sat 06:59:47 AM 49.7170 -103.4100 315° West 451 519 34,000  Level FlightAware ADS-B
Sat 07:00:27 AM 49.7670 -103.4880 315° West 451 519 34,000  Level FlightAware ADS-B
Sat 07:01:17 AM 49.8640 -103.6290 317° Northwest 453 521 34,000  Level FlightAware ADS-B
Sat 07:01:57 AM 49.9140 -103.7070 315° West 453 521 34,000  Level FlightAware ADS-B
Sat 07:02:37 AM 49.9640 -103.7850 315° West 453 521 34,000  Level FlightAware ADS-B
Sat 07:03:12 AM 50.0440 -103.9050 316° Northwest 449 517 34,000  Level FlightAware ADS-B
Sat 07:04:17 AM 50.1350 -104.0470 315° West 446 513 34,000  Level FlightAware ADS-B
Sat 07:04:52 AM 50.1860 -104.1260 315° West 446 513 34,000  Level FlightAware ADS-B
Sat 07:05:37 AM 50.2430 -104.2190 314° West 446 513 34,000  Level FlightAware ADS-B
Sat 07:06:22 AM 50.3130 -104.3260 316° Northwest 442 509 34,000  Level FlightAware ADS-B
Sat 07:06:57 AM 50.3530 -104.3910 314° West 442 509 34,000  Level FlightAware ADS-B
Sat 07:07:42 AM 50.1020 -103.9950 135° Southeast 446 513 34,000  Level FlightAware ADS-B
Sat 07:08:27 AM 50.1600 -104.0860 315° West 446 513 34,000  Level FlightAware ADS-B
Sat 07:09:12 AM 50.5610 -104.7200 315° West 439 505 34,000  Level FlightAware ADS-B
Sat 07:09:52 AM 50.6180 -104.8100 315° West 439 505 34,000  Level FlightAware ADS-B
Sat 07:10:27 AM 50.6620 -104.8880 312° West 435 501 34,000  Level FlightAware ADS-B
Sat 07:11:17 AM 50.7100 -105.0170 300° West 431 496 34,000  Level FlightAware ADS-B
Sat 07:11:52 AM 50.7470 -105.1260 298° West 432 497 34,000  Level FlightAware ADS-B
Sat 07:12:42 AM 50.7900 -105.2590 297° West 433 498 34,000  Level FlightAware ADS-B
Sat 07:13:22 AM 50.8180 -105.3420 298° West 434 499 34,000  Level FlightAware ADS-B
Sat 07:14:02 AM 50.8660 -105.4890 297° West 435 501 34,000  Level FlightAware ADS-B
Sat 07:14:47 AM 50.9060 -105.6120 297° West 436 502 34,000  Level FlightAware ADS-B
Sat 07:15:22 AM 50.9420 -105.7210 298° West 437 503 34,000  Level FlightAware ADS-B
Sat 07:16:12 AM 50.9830 -105.8480 297° West 437 503 34,000  Level FlightAware ADS-B
Sat 07:16:47 AM 51.0180 -105.9540 298° West 437 503 34,000  Level FlightAware ADS-B
Sat 07:17:27 AM 51.0540 -106.0660 297° West 436 502 34,000  Level FlightAware ADS-B
Sat 07:18:12 AM 51.0900 -106.1810 297° West 436 502 34,000  Level FlightAware ADS-B
Sat 07:18:57 AM 51.0870 -106.1740 124° Southeast 436 502 34,000  Level FlightAware ADS-B
Sat 07:19:37 AM 51.1730 -106.4440 297° West 432 497 34,000  Level FlightAware ADS-B
Sat 07:20:17 AM 51.2030 -106.5410 296° West 432 497 34,000  Level FlightAware ADS-B
Sat 07:21:07 AM 51.2400 -106.6630 296° West 432 497 34,000  Level FlightAware ADS-B
Sat 07:21:47 AM 51.2700 -106.7610 296° West 432 497 34,000  Level FlightAware ADS-B
Sat 07:22:27 AM 51.3000 -106.8590 296° West 432 497 34,000  Level FlightAware ADS-B
Sat 07:23:07 AM 51.3300 -106.9560 296° West 432 497 34,000  Level FlightAware ADS-B
Sat 07:23:42 AM 51.1540 -106.3800 116° Southeast 432 497 34,000  Level FlightAware ADS-B
Sat 07:24:27 AM 51.1900 -106.4990 296° West 432 497 34,000  Level FlightAware ADS-B
Sat 07:25:17 AM 51.2270 -106.6210 296° West 432 497 34,000  Level FlightAware ADS-B
Sat 07:25:57 AM 51.2570 -106.7190 296° West 432 497 34,000  Level FlightAware ADS-B
Sat 07:26:37 AM 51.2870 -106.8170 296° West 432 497 34,000  Level FlightAware ADS-B
Sat 07:27:17 AM 51.3170 -106.9140 296° West 432 497 34,000  Level FlightAware ADS-B
Sat 07:27:57 AM 51.3470 -107.0120 296° West 432 497 34,000  Level FlightAware ADS-B
Sat 07:28:47 AM 51.3840 -107.1340 296° West 432 497 34,000  Level FlightAware ADS-B
Sat 07:29:27 AM 51.4140 -107.2320 296° West 432 497 34,000  Level FlightAware ADS-B
Sat 07:30:07 AM 51.4430 -107.3300 295° West 432 497 34,000  Level FlightAware ADS-B
Sat 07:30:47 AM 51.4730 -107.4280 296° West 432 497 34,000  Level FlightAware ADS-B
Sat 07:31:37 AM 51.5100 -107.5510 296° West 432 497 34,000  Level FlightAware ADS-B
Sat 07:32:17 AM 51.5400 -107.6490 296° West 432 497 34,000  Level FlightAware ADS-B
Sat 07:32:57 AM 51.5700 -107.7470 296° West 432 497 34,000  Level FlightAware ADS-B
Sat 07:33:37 AM 51.6000 -107.8460 296° West 432 497 34,000  Level FlightAware ADS-B
Sat 07:34:46 AM 51.9500 -109.1333 296° West 440 506 34,000  Level Edmonton Center
Sat 07:35:46 AM 52.0000 -109.3333 292° West 440 506 34,000  Level Edmonton Center
Sat 07:36:46 AM 52.0500 -109.5333 292° West 440 506 34,000  Level Edmonton Center
Sat 07:37:46 AM 52.1000 -109.7000 296° West 440 506 34,000  Level Edmonton Center
Sat 07:38:46 AM 52.1500 -109.8667 296° West 440 506 34,000  Level Edmonton Center
Sat 07:39:46 AM 52.2000 -110.0667 292° West 440 506 34,000 550 Level Edmonton Center
Sat 07:40:46 AM 52.2500 -110.2333 296° West 440 506 35,100 319 Climbing Edmonton Center
Sat 07:46:02 AM 52.5350 -111.1930 296° West 432 497 36,000 144 Climbing FlightAware ADS-B
Sat 07:47:02 AM 52.5830 -111.3790 293° West 433 498 36,000  Level FlightAware ADS-B
Sat 07:48:22 AM 52.6450 -111.6250 293° West 434 499 36,000  Level FlightAware ADS-B
Sat 07:49:32 AM 52.7000 -111.8390 293° West 436 502 36,000  Level FlightAware ADS-B
Sat 07:50:42 AM 52.7540 -112.0560 292° West 439 505 36,000  Level FlightAware ADS-B
Sat 07:51:52 AM 52.8070 -112.2730 292° West 436 502 36,000  Level FlightAware ADS-B
Sat 07:53:47 AM 52.8910 -112.6150 292° West 431 496 36,000  Level FlightAware ADS-B
Sat 07:54:57 AM 52.9420 -112.8280 292° West 426 490 36,000  Level FlightAware ADS-B
Sat 07:55:37 AM 52.9720 -112.9510 292° West 424 488 36,000  Level FlightAware ADS-B
Sat 07:56:22 AM 53.0040 -113.0850 292° West 422 486 36,000  Level FlightAware ADS-B
Sat 07:57:02 AM 53.0330 -113.2090 291° West 419 482 36,000  Level FlightAware ADS-B
Sat 07:57:42 AM 53.0610 -113.3270 292° West 417 480 36,000  Level FlightAware ADS-B
Sat 07:58:27 AM 53.0930 -113.4640 291° West 416 479 36,000  Level FlightAware ADS-B
Sat 07:59:07 AM 53.1200 -113.5810 291° West 413 475 36,000  Level FlightAware ADS-B
Sat 07:59:52 AM 53.1510 -113.7150 291° West 412 474 36,000  Level FlightAware ADS-B
Sat 08:00:32 AM 53.1780 -113.8330 291° West 405 466 36,000  Level FlightAware ADS-B
Sat 08:01:12 AM 53.2150 -113.9360 301° West 383 441 36,000  Level FlightAware ADS-B
Sat 08:01:57 AM 53.2630 -114.0490 305° West 384 442 36,000  Level FlightAware ADS-B
Sat 08:02:37 AM 53.3030 -114.1440 305° West 379 436 36,000  Level FlightAware ADS-B
Sat 08:03:22 AM 53.3500 -114.2540 306° West 378 435 36,000  Level FlightAware ADS-B
Sat 08:04:02 AM 53.3900 -114.3500 305° West 376 433 36,000  Level FlightAware ADS-B
Sat 08:04:42 AM 53.4290 -114.4450 305° West 376 433 36,000  Level FlightAware ADS-B
Sat 08:05:27 AM 53.4750 -114.5540 305° West 376 433 36,000  Level FlightAware ADS-B
Sat 08:06:07 AM 53.5150 -114.6510 305° West 375 432 36,000  Level FlightAware ADS-B
Sat 08:06:47 AM 53.5530 -114.7450 304° West 375 432 36,000  Level FlightAware ADS-B
Sat 08:07:32 AM 53.6010 -114.8600 305° West 375 432 36,000  Level FlightAware ADS-B
Sat 08:08:12 AM 53.6400 -114.9570 304° West 375 432 36,000  Level FlightAware ADS-B
Sat 08:08:57 AM 53.6830 -115.0610 305° West 376 433 36,000  Level FlightAware ADS-B
Sat 08:09:52 AM 53.7380 -115.1970 304° West 379 436 36,000  Level FlightAware ADS-B
Sat 08:10:32 AM 53.7800 -115.3010 304° West 380 437 36,000  Level FlightAware ADS-B
Sat 08:11:17 AM 53.8240 -115.4120 304° West 380 437 36,000  Level FlightAware ADS-B
Sat 08:11:57 AM 53.8640 -115.5100 305° West 381 438 36,000  Level FlightAware ADS-B
Sat 08:12:37 AM 53.9000 -115.6010 304° West 382 440 36,000  Level FlightAware ADS-B
Sat 08:13:22 AM 53.9490 -115.7240 304° West 383 441 36,000  Level FlightAware ADS-B
Sat 08:14:17 AM 53.9980 -115.8520 303° West 384 442 36,000  Level FlightAware ADS-B
Sat 08:14:57 AM 54.0390 -115.9580 303° West 385 443 36,000  Level FlightAware ADS-B
Sat 08:15:42 AM 54.0860 -116.0720 305° West 385 443 36,000  Level FlightAware ADS-B
Sat 08:16:52 AM 54.1510 -116.2440 303° West 385 443 36,000  Level FlightAware ADS-B
Sat 08:17:47 AM 54.2060 -116.3830 304° West 387 445 36,000  Level FlightAware ADS-B
Sat 08:18:22 AM 54.2380 -116.4690 303° West 387 445 36,000  Level FlightAware ADS-B
Sat 08:19:12 AM 54.2780 -116.5790 302° West 387 445 36,000  Level FlightAware ADS-B
Sat 08:19:52 AM 54.3100 -116.6680 302° West 387 445 36,000  Level FlightAware ADS-B
Sat 08:20:32 AM 54.3420 -116.7560 302° West 387 445 36,000  Level FlightAware ADS-B
Sat 08:21:12 AM 54.3750 -116.8450 303° West 387 445 36,000  Level FlightAware ADS-B
Sat 08:23:07 AM 54.5210 -117.2130 304° West 386 444 36,000  Level FlightAware ADS-B
Sat 08:23:42 AM 54.5520 -117.2990 302° West 386 444 36,000  Level FlightAware ADS-B
Sat 08:24:32 AM 54.5920 -117.4100 302° West 386 444 36,000  Level FlightAware ADS-B
Sat 08:25:12 AM 54.6250 -117.4990 303° West 386 444 36,000  Level FlightAware ADS-B
Sat 08:25:52 AM 54.6570 -117.5880 302° West 386 444 36,000  Level FlightAware ADS-B
Sat 08:26:32 AM 54.6890 -117.6770 302° West 386 444 36,000  Level FlightAware ADS-B
Sat 08:27:22 AM 54.7290 -117.7890 302° West 386 444 36,000  Level FlightAware ADS-B
Sat 08:28:02 AM 54.7610 -117.8780 302° West 386 444 36,000  Level FlightAware ADS-B
Sat 08:28:42 AM 54.7930 -117.9670 302° West 386 444 36,000  Level FlightAware ADS-B
Sat 08:29:22 AM 54.8260 -118.0560 303° West 386 444 36,000  Level FlightAware ADS-B
Sat 08:30:02 AM 54.8580 -118.1460 302° West 386 444 36,000  Level FlightAware ADS-B
Sat 08:30:52 AM 54.8980 -118.2580 302° West 386 444 36,000  Level FlightAware ADS-B
Sat 08:31:32 AM 54.9300 -118.3470 302° West 386 444 36,000  Level FlightAware ADS-B
Sat 08:32:12 AM 54.9620 -118.4370 302° West 386 444 36,000  Level FlightAware ADS-B
Sat 08:32:52 AM 54.9950 -118.5270 303° West 386 444 36,000  Level FlightAware ADS-B
Sat 08:33:46 AM 55.1000 -118.9500 303° West 380 437 36,000  Level Edmonton Center
Sat 08:34:46 AM 55.1667 -119.1000 308° West 380 437 36,000  Level Edmonton Center
Sat 08:35:46 AM 55.2167 -119.2667 298° West 380 437 36,000  Level Edmonton Center
Sat 08:37:11 AM 55.2833 -119.5167 295° West 380 437 36,000  Level Edmonton Center
Sat 08:38:11 AM 55.3333 -119.6833 298° West 380 437 36,000  Level Edmonton Center
Sat 08:39:11 AM 55.3833 -119.8167 303° West 380 437 36,000  Level Edmonton Center
Sat 08:40:11 AM 55.4500 -120.0000 303° West 390 449 36,000  Level Edmonton Center
Sat 08:41:11 AM 55.5000 -120.1667 298° West 390 449 36,000  Level Edmonton Center
Sat 08:42:11 AM 55.5500 -120.3500 296° West 390 449 36,000  Level Edmonton Center
Sat 08:43:11 AM 55.6000 -120.5167 298° West 390 449 36,000  Level Edmonton Center
Sat 08:44:11 AM 55.6667 -120.6667 308° West 390 449 36,000  Level Edmonton Center
Sat 08:45:11 AM 55.7000 -120.8667 287° West 390 449 36,000  Level Edmonton Center
Sat 08:46:11 AM 55.7500 -121.0167 301° West 390 449 36,000  Level Edmonton Center
Sat 08:47:11 AM 55.8167 -121.2000 303° West 390 449 36,000  Level Edmonton Center
Sat 08:48:11 AM 55.8667 -121.3667 298° West 390 449 36,000  Level Edmonton Center
Sat 08:49:11 AM 55.9167 -121.5500 296° West 390 449 36,000  Level Edmonton Center
Sat 08:50:11 AM 55.9667 -121.7333 296° West 390 449 36,000  Level Edmonton Center
Sat 08:52:11 AM 56.0833 -122.0500 304° West 390 449 36,000  Level Edmonton Center
Sat 08:53:11 AM 56.1167 -122.2333 288° West 390 449 36,000  Level Edmonton Center
Sat 08:54:11 AM 56.1667 -122.4167 296° West 390 449 36,000  Level Edmonton Center
Sat 08:55:11 AM 56.2000 -122.5833 290° West 390 449 36,000  Level Edmonton Center
Sat 08:56:11 AM 56.2667 -122.7667 303° West 390 449 36,000  Level Edmonton Center
Sat 08:57:11 AM 56.3167 -122.9167 301° West 390 449 36,000  Level Edmonton Center
Sat 08:58:11 AM 56.3500 -123.1333 286° West 390 449 36,000  Level Edmonton Center
Sat 08:59:11 AM 56.4167 -123.2833 309° West 390 449 36,000  Level Edmonton Center
Sat 09:00:11 AM 56.4500 -123.4667 288° West 390 449 36,000  Level Edmonton Center
Sat 09:01:11 AM 56.5000 -123.6500 296° West 390 449 36,000  Level Edmonton Center
Sat 09:02:11 AM 56.5500 -123.8333 296° West 390 449 36,000  Level Edmonton Center
Sat 09:03:11 AM 56.6000 -124.0167 296° West 390 449 36,000  Level Edmonton Center
Sat 09:04:11 AM 56.6500 -124.2000 296° West 400 460 36,000  Level Edmonton Center
Sat 09:05:11 AM 56.7000 -124.3833 296° West 400 460 36,000  Level Edmonton Center
Sat 09:06:11 AM 56.7333 -124.5333 292° West 400 460 36,000  Level Edmonton Center
Sat 09:07:11 AM 56.8000 -124.7333 301° West 400 460 36,000  Level Edmonton Center
Sat 09:08:11 AM 56.8333 -124.9167 288° West 390 449 36,000  Level Edmonton Center
Sat 09:09:11 AM 56.8833 -125.1000 297° West 390 449 36,000  Level Edmonton Center
Sat 09:10:11 AM 56.9333 -125.2833 297° West 390 449 36,000  Level Edmonton Center
Sat 09:11:11 AM 56.9667 -125.4667 289° West 390 449 36,000  Level Edmonton Center
Sat 09:13:00 AM 57.0559 -125.8249 295° West  Level FlightAware Approximate
Sat 09:20:00 AM 57.3905 -127.2207 294° West  Level FlightAware Approximate
Sat 09:21:00 AM 57.4371 -127.4221 293° West  Level FlightAware Approximate
Sat 09:22:00 AM 57.4844 -127.6237 294° West  Level FlightAware Approximate
Sat 09:23:00 AM 57.5314 -127.8257 293° West  Level FlightAware Approximate
Sat 09:24:00 AM 57.5780 -128.0283 293° West  Level FlightAware Approximate
Sat 09:25:00 AM 57.6243 -128.2314 293° West  Level FlightAware Approximate
Sat 09:26:00 AM 57.6703 -128.4351 293° West  Level FlightAware Approximate
Sat 09:27:00 AM 57.7160 -128.6392 293° West  Level FlightAware Approximate
Sat 09:28:00 AM 57.7613 -128.8439 293° West  Level FlightAware Approximate
Sat 09:29:00 AM 57.8063 -129.0490 292° West  Level FlightAware Approximate
Sat 09:30:00 AM 57.8509 -129.2547 292° West  Level FlightAware Approximate
Sat 09:31:00 AM 57.8953 -129.4609 292° West  Level FlightAware Approximate
Sat 09:32:00 AM 57.9393 -129.6676 292° West  Level FlightAware Approximate
Sat 09:33:00 AM 57.9829 -129.8748 292° West  Level FlightAware Approximate
Sat 09:34:00 AM 58.0262 -130.0824 292° West  Level FlightAware Approximate
Sat 09:35:00 AM 58.0692 -130.2906 291° West  Level FlightAware Approximate
Sat 09:36:00 AM 58.1119 -130.4993 291° West  Level FlightAware Approximate
Sat 09:37:00 AM 58.1542 -130.7086 291° West  Level FlightAware Approximate
Sat 09:38:00 AM 58.1961 -130.9182 291° West  Level FlightAware Approximate
Sat 09:39:00 AM 58.2377 -131.1284 291° West  Level FlightAware Approximate
Sat 09:40:00 AM 58.2790 -131.3391 291° West  Level FlightAware Approximate
Sat 09:41:00 AM 58.3199 -131.5507 290° West  Level FlightAware Approximate
Sat 09:42:00 AM 58.3592 -131.7632 289° West  Level FlightAware Approximate
Sat 09:43:00 AM 58.3967 -131.9778 289° West  Level FlightAware Approximate
Sat 09:44:00 AM 58.4338 -132.1929 288° West  Level FlightAware Approximate
Sat 09:45:00 AM 58.4705 -132.4084 288° West  Level FlightAware Approximate
Sat 09:46:00 AM 58.5069 -132.6243 288° West  Level FlightAware Approximate
Sat 09:47:00 AM 58.5429 -132.8407 288° West  Level FlightAware Approximate
Sat 09:48:00 AM 58.5786 -133.0576 288° West  Level FlightAware Approximate
Sat 09:49:00 AM 58.6139 -133.2749 287° West  Level FlightAware Approximate
Sat 09:50:00 AM 58.6488 -133.4926 287° West  Level FlightAware Approximate
Sat 09:51:00 AM 58.6834 -133.7108 287° West  Level FlightAware Approximate
Sat 09:52:00 AM 58.7204 -133.9279 289° West  Level FlightAware Approximate
Sat 09:53:00 AM 58.7595 -134.1436 289° West  Level FlightAware Approximate
Sat 09:53:09 AM 58.6000 -133.1333 286° West 370 426 36,000  Level Anchorage Center
Sat 09:54:00 AM 58.7962 -134.3611 288° West  Level FlightAware Approximate
Sat 09:54:09 AM 58.6333 -133.3167 289° West 380 437 36,000  Level Anchorage Center
Sat 09:55:00 AM 58.8321 -134.5794 288° West  Level FlightAware Approximate
Sat 09:55:09 AM 58.6667 -133.5167 288° West 390 449 36,000  Level Anchorage Center
Sat 09:56:00 AM 58.8676 -134.7982 288° West  Level FlightAware Approximate
Sat 09:56:09 AM 58.6833 -133.7000 280° West 380 437 36,000  Level Anchorage Center
Sat 09:57:00 AM 58.9026 -135.0175 286° West  Level FlightAware Approximate
Sat 09:57:09 AM 58.7167 -133.9000 288° West 400 460 36,000  Level Anchorage Center
Sat 09:58:00 AM 58.9350 -135.2384 286° West  Level FlightAware Approximate
Sat 09:58:09 AM 58.7500 -134.0833 289° West 380 437 36,000  Level Anchorage Center
Sat 09:59:09 AM 58.7833 -134.2833 288° West 370 426 36,000  Level Anchorage Center
Sat 10:00:09 AM 58.8167 -134.4667 289° West 370 426 36,000  Level Anchorage Center
Sat 10:01:10 AM 58.8500 -134.6667 288° West 370 426 36,000  Level Anchorage Center
Sat 10:02:10 AM 58.8667 -134.8500 280° West 360 414 36,000  Level Anchorage Center
Sat 10:03:10 AM 58.9000 -135.0333 289° West 370 426 36,000  Level Anchorage Center
Sat 10:04:10 AM 58.9333 -135.2333 288° West 370 426 36,000  Level Anchorage Center
Sat 10:05:10 AM 58.9667 -135.4333 288° West 380 437 36,000  Level Anchorage Center
Sat 10:06:10 AM 58.9833 -135.6167 280° West 370 426 36,000  Level Anchorage Center
Sat 10:07:10 AM 59.0167 -135.8167 288° West 370 426 36,000  Level Anchorage Center
Sat 10:08:10 AM 59.0500 -136.0000 290° West 370 426 36,000  Level Anchorage Center
Sat 10:09:11 AM 59.0667 -136.2000 279° West 370 426 36,000  Level Anchorage Center
Sat 10:10:11 AM 59.1000 -136.4000 288° West 370 426 36,000  Level Anchorage Center
Sat 10:11:11 AM 59.1333 -136.6000 288° West 370 426 36,000  Level Anchorage Center
Sat 10:12:11 AM 59.1500 -136.8000 279° West 380 437 36,000  Level Anchorage Center
Sat 10:13:11 AM 59.1833 -136.9833 290° West 370 426 36,000  Level Anchorage Center
Sat 10:14:11 AM 59.2000 -137.1667 280° West 360 414 36,000  Level Anchorage Center
Sat 10:15:11 AM 59.2333 -137.3667 288° West 360 414 36,000  Level Anchorage Center
Sat 10:16:11 AM 59.2500 -137.5500 280° West 360 414 36,000  Level Anchorage Center
Sat 10:17:11 AM 59.2833 -137.7500 288° West 360 414 36,000  Level Anchorage Center
Sat 10:18:11 AM 59.3000 -137.9333 280° West 350 403 36,000  Level Anchorage Center
Sat 10:19:12 AM 59.3333 -138.1333 288° West 370 426 36,000  Level Anchorage Center
Sat 10:20:12 AM 59.3500 -138.3333 279° West 370 426 36,000  Level Anchorage Center
Sat 10:21:12 AM 59.3667 -138.5167 280° West 370 426 36,000  Level Anchorage Center
Sat 10:22:12 AM 59.4000 -138.7167 288° West 380 437 36,000  Level Anchorage Center
Sat 10:23:12 AM 59.4167 -138.9167 279° West 370 426 36,000  Level Anchorage Center
Sat 10:24:12 AM 59.4500 -139.1333 287° West 380 437 36,000  Level Anchorage Center
Sat 10:25:12 AM 59.4667 -139.3333 279° West 380 437 36,000  Level Anchorage Center
Sat 10:26:12 AM 59.4833 -139.5167 280° West 370 426 36,000  Level Anchorage Center
Sat 10:27:13 AM 59.5167 -139.7333 287° West 390 449 36,000  Level Anchorage Center
Sat 10:28:13 AM 59.5500 -139.9000 292° West 380 437 36,000  Level Anchorage Center
Sat 10:29:13 AM 59.5833 -140.1000 288° West 390 449 36,000  Level Anchorage Center
Sat 10:30:13 AM 59.6167 -140.3000 288° West 390 449 36,000  Level Anchorage Center
Sat 10:31:13 AM 59.6500 -140.5000 288° West 380 437 36,000  Level Anchorage Center
Sat 10:32:13 AM 59.7000 -140.7000 296° West 390 449 36,000  Level Anchorage Center
Sat 10:33:13 AM 59.7333 -140.9167 287° West 400 460 36,000  Level Anchorage Center
Sat 10:34:13 AM 59.7667 -141.1167 288° West 390 449 36,000  Level Anchorage Center
Sat 10:35:14 AM 59.8000 -141.3167 288° West 390 449 36,000  Level Anchorage Center
Sat 10:36:14 AM 59.8500 -141.5167 297° West 390 449 36,000  Level Anchorage Center
Sat 10:37:14 AM 59.8833 -141.7167 288° West 390 449 36,000  Level Anchorage Center
Sat 10:38:14 AM 59.9167 -141.9333 287° West 390 449 36,000  Level Anchorage Center
Sat 10:39:14 AM 59.9500 -142.1333 288° West 390 449 36,000  Level Anchorage Center
Sat 10:40:14 AM 59.9833 -142.3333 289° West 390 449 36,000  Level Anchorage Center
Sat 10:41:14 AM 60.0333 -142.5333 297° West 390 449 36,000  Level Anchorage Center
Sat 10:42:14 AM 60.0667 -142.7500 287° West 380 437 36,000  Level Anchorage Center
Sat 10:43:14 AM 60.1000 -142.9500 289° West 390 449 36,000  Level Anchorage Center
Sat 10:44:14 AM 60.1333 -143.1500 289° West 390 449 36,000  Level Anchorage Center
Sat 10:45:14 AM 60.1667 -143.3833 286° West 380 437 36,000  Level Anchorage Center
Sat 10:46:14 AM 60.2000 -143.5833 289° West 370 426 36,000  Level Anchorage Center
Sat 10:47:14 AM 60.2333 -143.8000 287° West 390 449 36,000  Level Anchorage Center
Sat 10:48:15 AM 60.2667 -144.0000 289° West 370 426 36,000  Level Anchorage Center
Sat 10:49:15 AM 60.3000 -144.2000 289° West 380 437 36,000  Level Anchorage Center
Sat 10:50:15 AM 60.3333 -144.4167 287° West 380 437 36,000  Level Anchorage Center
Sat 10:51:15 AM 60.3667 -144.6167 289° West 380 437 36,000  Level Anchorage Center
Sat 10:52:15 AM 60.4000 -144.8167 289° West 380 437 36,000  Level Anchorage Center
Sat 10:53:15 AM 60.4333 -145.0333 287° West 380 437 36,000  Level Anchorage Center
Sat 10:54:15 AM 60.4667 -145.2333 289° West 390 449 36,000  Level Anchorage Center
Sat 10:55:15 AM 60.4833 -145.4333 280° West 360 414 36,000  Level Anchorage Center
Sat 10:56:16 AM 60.5167 -145.6500 287° West 390 449 36,000  Level Anchorage Center
Sat 10:57:16 AM 60.5500 -145.8667 287° West 390 449 36,000  Level Anchorage Center
Sat 10:58:16 AM 60.5833 -146.0833 287° West 400 460 36,000 -130 Level Anchorage Center
Sat 11:04:12 AM 60.7650 -147.4070 287° West 409 471 35,100 -621 Descending FlightAware ADS-B
Sat 11:04:52 AM 60.7900 -147.5850 286° West 394 453 31,900 -2,775 Descending FlightAware ADS-B
Sat 11:05:32 AM 60.8050 -147.7070 284° West 390 449 31,400 -375 Descending FlightAware ADS-B
Sat 11:06:12 AM 60.8200 -147.8290 284° West 390 449 31,400 -3,075 Level FlightAware ADS-B
Sat 11:06:52 AM 60.8420 -148.0010 285° West 366 421 27,300 -3,388 Descending FlightAware ADS-B
Sat 11:07:37 AM 60.8570 -148.1330 283° West 366 421 26,600 -2,329 Descending FlightAware ADS-B
Sat 11:08:17 AM 60.8760 -148.2770 285° West 370 426 24,000 -2,400 Descending FlightAware ADS-B
Sat 11:09:02 AM 60.8930 -148.4260 283° West 373 429 23,200 -1,867 Descending FlightAware ADS-B
Sat 11:09:47 AM 60.9130 -148.5910 284° West 374 430 21,200 -2,820 Descending FlightAware ADS-B
Sat 11:10:42 AM 60.9370 -148.7830 285° West 380 437 18,500 -2,450 Descending FlightAware ADS-B
Sat 11:11:47 AM 60.9630 -149.0060 284° West 372 428 16,300 -2,014 Descending FlightAware ADS-B
Sat 11:13:02 AM 60.9930 -149.2680 283° West 368 423 13,800 -1,714 Descending FlightAware ADS-B
Sat 11:14:07 AM 61.0370 -149.4710 294° West 349 402 12,300 -1,304 Descending FlightAware ADS-B
Sat 11:14:57 AM 61.0760 -149.6150 299° West 334 384 11,300 -1,267 Descending FlightAware ADS-B
Sat 11:15:37 AM 61.1020 -149.7300 295° West 319 367 10,400 -975 Descending FlightAware ADS-B
Sat 11:16:17 AM 61.1070 -149.8450 275° West 288 331 10,000 -943 Descending FlightAware ADS-B
Sat 11:16:47 AM 61.1110 -149.9180 277° West 275 316 9,300 -1,971 Descending FlightAware ADS-B
Sat 11:17:27 AM 61.1120 -150.0270 271° West 273 314 7,700 -2,400 Descending FlightAware ADS-B
Sat 11:17:57 AM 61.1120 -150.1050 270° West 270 311 6,500 -2,267 Descending FlightAware ADS-B
Sat 11:18:12 AM 61.1120 -150.1440 270° West 264 304 6,000 -1,650 Descending FlightAware ADS-B
Sat 11:18:37 AM 61.1120 -150.1950 270° West 258 297 5,400 -1,964 Descending FlightAware ADS-B
Sat 11:19:07 AM 61.1130 -150.2810 271° West 256 295 4,200 -1,920 Descending FlightAware ADS-B
Sat 11:19:27 AM 61.1120 -150.3200 267° West 244 281 3,800 -831 Descending FlightAware ADS-B
Sat 11:20:12 AM 61.1200 -150.4140 280° West 195 224 3,300 -800 Descending FlightAware ADS-B
Sat 11:20:27 AM 61.1300 -150.4230 337° Northwest 181 208 3,000 -1,467 Descending FlightAware ADS-B
Sat 11:20:57 AM 61.1530 -150.3910 34° Northeast 183 211 2,200 -1,200 Descending FlightAware ADS-B
Sat 11:21:12 AM 61.1570 -150.3650 72° East 172 198 2,100 -133 Descending FlightAware ADS-B
Sat 11:21:42 AM 61.1650 -150.3220 69° East 171 197 2,100  Level FlightAware ADS-B
Sat 11:21:52 AM 61.1670 -150.3030 78° East 176 203 2,100  Level FlightAware ADS-B
Sat 11:22:22 AM 61.1670 -150.2530 90° East 176 203 2,100  Level FlightAware ADS-B
Sat 11:22:37 AM 61.1670 -150.2310 90° East 159 183 2,100 -400 Level FlightAware ADS-B
Sat 11:23:07 AM 61.1670 -150.1890 90° East 142 163 1,800 -750 Descending FlightAware ADS-B
Sat 11:23:17 AM 61.1680 -150.1740 82° East 135 155 1,600 -800 Descending FlightAware ADS-B
Sat 11:23:37 AM 61.1680 -150.1480 90° East 135 155 1,400 -800 Descending FlightAware ADS-B
Sat 11:24:02 AM 61.1680 -150.1150 90° East 134 154 1,000 -720 Descending FlightAware ADS-B
Sat 11:24:27 AM 61.1680 -150.0870 90° East 134 154 800 -655 Descending FlightAware ADS-B
Sat 11:24:57 AM 61.1680 -150.0510 90° East 133 153 400 -800 Descending FlightAware ADS-B

Login

Don't have an account? Register now (free) for customized features, flight alerts, and more!